Time;durP1;ratioP1;P1;durP2;ratioP2;P2;SDS_P1;SDS_P2;PMS_P1;PMS_P2;Temp;Humidity;BMP_temperature;BMP_pressure;BME280_temperature;BME280_humidity;BME280_pressure;Samples;Min_cycle;Max_cycle;Signal;HPM_P1;HPM_P2
2023/07/17 00:00:15;;;;;;;4.35;3.55;;;23.60;99.90;;;;;;6253221;22;20165;-79
2023/07/17 00:02:43;;;;;;;5.13;3.90;;;23.60;99.90;;;;;;6252928;22;20193;-80
2023/07/17 00:05:11;;;;;;;6.07;3.67;;;23.50;99.90;;;;;;6278411;22;20197;-80
2023/07/17 00:07:39;;;;;;;4.60;3.65;;;23.50;99.90;;;;;;6253002;22;20189;-80
2023/07/17 00:10:08;;;;;;;5.30;3.85;;;23.40;99.90;;;;;;6279717;22;20157;-79
2023/07/17 00:12:37;;;;;;;4.10;3.70;;;23.40;99.90;;;;;;6279584;22;20177;-80
2023/07/17 00:15:05;;;;;;;4.70;3.60;;;23.40;99.90;;;;;;6253099;22;20524;-79
2023/07/17 00:17:36;;;;;;;6.57;3.70;;;23.40;99.90;;;;;;6252340;22;20618;-79
2023/07/17 00:20:11;;;;;;;5.10;4.13;;;23.30;99.90;;;;;;6278373;22;20189;-79
2023/07/17 00:22:39;;;;;;;4.67;3.87;;;23.30;99.90;;;;;;6253063;22;20185;-80
2023/07/17 00:25:06;;;;;;;4.43;3.60;;;23.30;99.90;;;;;;6279711;22;20551;-80
2023/07/17 00:27:35;;;;;;;6.53;4.03;;;23.20;99.90;;;;;;6227403;22;20186;-80
2023/07/17 00:30:03;;;;;;;4.28;3.70;;;23.20;99.90;;;;;;6252978;22;20166;-79
2023/07/17 00:32:30;;;;;;;9.93;4.40;;;23.20;99.90;;;;;;6278124;22;20185;-78
2023/07/17 00:34:57;;;;;;;9.43;4.70;;;23.10;99.90;;;;;;6252719;22;20169;-79
2023/07/17 00:37:24;;;;;;;4.55;3.85;;;23.10;99.90;;;;;;6252758;22;20544;-78
2023/07/17 00:39:51;;;;;;;4.35;3.72;;;23.00;99.90;;;;;;6278612;22;20223;-79
2023/07/17 00:42:19;;;;;;;7.97;3.90;;;22.90;99.90;;;;;;6279446;22;20503;-80
2023/07/17 00:44:46;;;;;;;4.45;3.80;;;22.90;99.90;;;;;;6279926;22;20169;-78
2023/07/17 00:47:13;;;;;;;5.00;4.05;;;22.90;99.90;;;;;;6279830;22;20261;-78
2023/07/17 00:49:40;;;;;;;6.00;4.22;;;22.90;99.90;;;;;;6279677;22;20529;-79
2023/07/17 00:52:10;;;;;;;5.22;4.20;;;22.90;99.90;;;;;;6252464;22;20254;-79
2023/07/17 00:54:40;;;;;;;6.90;4.35;;;22.90;99.90;;;;;;6277057;22;20170;-79
2023/07/17 00:57:09;;;;;;;5.45;4.30;;;22.80;99.90;;;;;;6277985;22;20483;-79
2023/07/17 00:59:36;;;;;;;7.00;4.23;;;22.80;99.90;;;;;;6279605;22;20167;-79
2023/07/17 01:02:04;;;;;;;5.07;4.23;;;22.80;99.90;;;;;;6252610;22;20196;-79
2023/07/17 01:04:31;;;;;;;4.95;4.40;;;22.80;99.90;;;;;;6278186;22;20189;-79
2023/07/17 01:06:58;;;;;;;5.80;4.30;;;22.80;99.90;;;;;;6253028;22;20185;-79
2023/07/17 01:09:25;;;;;;;5.78;4.40;;;22.70;99.90;;;;;;6252812;22;20189;-79
2023/07/17 01:11:52;;;;;;;5.77;4.40;;;22.70;99.90;;;;;;6252588;22;20182;-80
2023/07/17 01:14:20;;;;;;;5.43;4.37;;;22.70;99.90;;;;;;6252931;22;20658;-80
2023/07/17 01:16:48;;;;;;;5.75;4.18;;;22.60;99.90;;;;;;6252492;22;20201;-78
2023/07/17 01:19:16;;;;;;;6.33;4.40;;;22.50;99.90;;;;;;6254641;22;20169;-81
2023/07/17 01:21:51;;;;;;;5.30;4.27;;;22.50;99.90;;;;;;6254449;22;20196;-80
2023/07/17 01:24:19;;;;;;;6.03;4.80;;;22.50;99.90;;;;;;6254313;22;20161;-79
2023/07/17 01:26:47;;;;;;;4.93;4.38;;;22.40;99.90;;;;;;6254476;22;20193;-79
2023/07/17 01:29:14;;;;;;;7.57;4.83;;;22.40;99.90;;;;;;6254726;22;20185;-79
2023/07/17 01:31:42;;;;;;;7.20;4.10;;;22.40;99.90;;;;;;6254315;22;20276;-79
2023/07/17 01:34:10;;;;;;;5.97;4.57;;;22.30;99.90;;;;;;6254870;22;20170;-79
2023/07/17 01:36:37;;;;;;;7.68;4.63;;;22.20;99.90;;;;;;6279778;22;20217;-78
2023/07/17 01:39:04;;;;;;;5.90;4.20;;;22.20;99.90;;;;;;6254696;22;20178;-79
2023/07/17 01:41:31;;;;;;;7.70;4.40;;;22.20;99.90;;;;;;6281387;22;20463;-80
2023/07/17 01:43:58;;;;;;;6.03;4.20;;;22.10;99.90;;;;;;6254202;22;20260;-81
2023/07/17 01:46:25;;;;;;;6.82;4.30;;;22.10;99.90;;;;;;6281216;22;20185;-79
2023/07/17 01:48:53;;;;;;;4.83;4.27;;;22.10;99.90;;;;;;6228536;22;20189;-79
2023/07/17 01:51:20;;;;;;;5.87;4.30;;;22.10;99.90;;;;;;6254042;22;20181;-80
2023/07/17 01:53:47;;;;;;;5.63;4.30;;;22.10;99.90;;;;;;6254214;22;20173;-79
2023/07/17 01:56:14;;;;;;;5.93;4.63;;;22.10;99.90;;;;;;6254307;22;20501;-79
2023/07/17 01:58:41;;;;;;;9.85;4.93;;;22.00;99.90;;;;;;6254060;22;20248;-79
2023/07/17 02:01:09;;;;;;;5.80;4.77;;;21.90;99.90;;;;;;6280865;22;20268;-79
2023/07/17 02:03:36;;;;;;;5.80;4.30;;;21.90;99.90;;;;;;6280914;22;20555;-78
2023/07/17 02:06:04;;;;;;;5.53;4.60;;;21.90;99.90;;;;;;6279494;22;20594;-78
2023/07/17 02:08:32;;;;;;;6.27;4.60;;;21.90;99.90;;;;;;6132305;23;20203;-78
2023/07/17 02:10:59;;;;;;;5.73;4.37;;;21.80;99.90;;;;;;6132644;23;20487;-78
2023/07/17 02:13:26;;;;;;;5.03;4.20;;;21.80;99.90;;;;;;6157299;23;20188;-78
2023/07/17 02:15:53;;;;;;;8.33;4.97;;;21.80;99.90;;;;;;6132342;23;20203;-78
2023/07/17 02:18:20;;;;;;;6.50;4.60;;;21.70;99.90;;;;;;6157143;23;20551;-79
2023/07/17 02:20:49;;;;;;;5.23;4.70;;;21.70;99.90;;;;;;6132738;23;20172;-79
2023/07/17 02:23:16;;;;;;;5.77;4.40;;;21.70;99.90;;;;;;6157139;23;20176;-79
2023/07/17 02:25:43;;;;;;;6.27;4.60;;;21.70;99.90;;;;;;6171042;22;20172;-79
2023/07/17 02:28:10;;;;;;;9.53;5.20;;;21.60;99.90;;;;;;6253232;22;20181;-80
2023/07/17 02:30:37;;;;;;;6.20;4.60;;;21.60;99.90;;;;;;6253974;22;20173;-79
2023/07/17 02:33:04;;;;;;;7.00;4.87;;;21.60;99.90;;;;;;6279679;22;20292;-79
2023/07/17 02:35:31;;;;;;;9.40;5.20;;;21.60;99.90;;;;;;6280639;22;20161;-78
2023/07/17 02:37:58;;;;;;;5.53;4.50;;;21.50;99.90;;;;;;6253805;22;20201;-79
2023/07/17 02:40:25;;;;;;;5.67;4.43;;;21.50;99.90;;;;;;6280489;22;20245;-79
2023/07/17 02:42:53;;;;;;;7.67;5.10;;;21.50;99.90;;;;;;6253670;22;20186;-79
2023/07/17 02:45:20;;;;;;;9.43;4.77;;;21.50;99.90;;;;;;6253737;22;20170;-79
2023/07/17 02:47:47;;;;;;;6.07;4.73;;;21.50;99.90;;;;;;6253505;22;20209;-79
2023/07/17 02:50:14;;;;;;;5.17;4.27;;;21.50;99.90;;;;;;6280549;22;20173;-79
2023/07/17 02:52:41;;;;;;;9.40;5.10;;;21.40;99.90;;;;;;6253755;22;20280;-79
2023/07/17 02:55:09;;;;;;;6.63;4.50;;;21.50;99.90;;;;;;6280465;22;20158;-80
2023/07/17 02:57:36;;;;;;;6.53;4.60;;;21.40;99.90;;;;;;6280466;22;20174;-80
2023/07/17 03:00:12;;;;;;;6.80;4.57;;;21.40;99.90;;;;;;6253990;22;20340;-78
2023/07/17 03:02:42;;;;;;;6.20;5.00;;;21.40;99.90;;;;;;6253270;22;20185;-79
2023/07/17 03:05:11;;;;;;;6.40;4.50;;;21.40;99.90;;;;;;6228406;22;20162;-79
2023/07/17 03:07:43;;;;;;;6.77;4.97;;;21.40;99.90;;;;;;6279386;22;20218;-79
2023/07/17 03:10:11;;;;;;;6.40;4.77;;;21.30;99.90;;;;;;6253457;22;20240;-79
2023/07/17 03:12:39;;;;;;;8.93;4.60;;;21.30;99.90;;;;;;6253663;22;20193;-79
2023/07/17 03:15:07;;;;;;;6.17;4.80;;;21.30;99.90;;;;;;6228533;22;20172;-79
2023/07/17 03:17:34;;;;;;;5.90;4.73;;;21.30;99.90;;;;;;6253422;22;20201;-79
2023/07/17 03:20:03;;;;;;;6.07;4.70;;;21.20;99.90;;;;;;6253426;22;20162;-79
2023/07/17 03:22:30;;;;;;;6.30;5.20;;;21.20;99.90;;;;;;6253330;22;20213;-78
2023/07/17 03:24:57;;;;;;;6.80;4.60;;;21.20;99.90;;;;;;6252987;22;20176;-79
2023/07/17 03:27:25;;;;;;;5.83;4.87;;;21.30;99.90;;;;;;6253308;22;20203;-80
2023/07/17 03:29:52;;;;;;;7.30;4.60;;;21.30;99.90;;;;;;6280120;22;20213;-80
2023/07/17 03:32:19;;;;;;;10.70;5.20;;;21.30;99.90;;;;;;6253648;22;20264;-79
2023/07/17 03:34:46;;;;;;;7.27;4.40;;;21.40;99.90;;;;;;6280623;22;20157;-79
2023/07/17 03:37:13;;;;;;;5.57;4.70;;;21.40;99.90;;;;;;6253100;22;20636;-79
2023/07/17 03:39:40;;;;;;;6.57;4.53;;;21.40;99.90;;;;;;6252919;22;20172;-79
2023/07/17 03:42:10;;;;;;;6.07;5.00;;;21.50;99.90;;;;;;6253481;22;20189;-79
2023/07/17 03:44:38;;;;;;;6.67;4.97;;;21.50;99.90;;;;;;6278529;22;20169;-80
2023/07/17 03:47:06;;;;;;;6.50;5.07;;;21.60;99.90;;;;;;6279929;22;20201;-80
2023/07/17 03:49:33;;;;;;;5.93;4.40;;;21.60;99.90;;;;;;6252946;22;20181;-80
2023/07/17 03:52:00;;;;;;;7.03;5.00;;;21.70;99.90;;;;;;6253299;22;20457;-80
2023/07/17 03:54:27;;;;;;;5.80;4.93;;;21.70;99.90;;;;;;6253012;22;20161;-79
2023/07/17 03:56:54;;;;;;;6.33;4.73;;;21.80;99.90;;;;;;6252869;22;20189;-80
2023/07/17 03:59:24;;;;;;;5.73;4.70;;;21.70;99.90;;;;;;6280400;22;20162;-79
2023/07/17 04:01:51;;;;;;;7.10;5.20;;;21.70;99.90;;;;;;6252832;22;20580;-78
2023/07/17 04:04:18;;;;;;;6.60;4.80;;;21.70;99.90;;;;;;6253397;22;20193;-79
2023/07/17 04:06:46;;;;;;;6.67;4.80;;;21.70;99.90;;;;;;6279905;22;20553;-79
2023/07/17 04:09:15;;;;;;;6.50;4.90;;;21.80;99.90;;;;;;6253023;22;20235;-79
2023/07/17 04:11:45;;;;;;;8.52;5.20;;;21.80;99.90;;;;;;6279718;22;20205;-79
2023/07/17 04:14:14;;;;;;;7.43;4.93;;;21.80;99.90;;;;;;6253537;22;20154;-79
2023/07/17 04:16:42;;;;;;;6.47;4.87;;;21.80;99.90;;;;;;6279409;22;20576;-79
2023/07/17 04:19:10;;;;;;;5.93;4.90;;;21.90;99.90;;;;;;6279832;22;20165;-78
2023/07/17 04:21:37;;;;;;;6.97;5.10;;;22.00;99.90;;;;;;6279513;22;20260;-78
2023/07/17 04:24:04;;;;;;;8.73;5.47;;;22.00;99.90;;;;;;6278437;22;20177;-78
2023/07/17 04:26:31;;;;;;;6.77;5.07;;;22.00;99.90;;;;;;6252432;22;20223;-78
2023/07/17 04:28:58;;;;;;;9.50;5.23;;;22.00;99.90;;;;;;6279625;22;20186;-80
2023/07/17 04:31:27;;;;;;;7.50;4.93;;;22.10;99.90;;;;;;6253153;22;20596;-79
2023/07/17 04:33:54;;;;;;;7.03;5.00;;;22.10;99.90;;;;;;6278403;22;20586;-79
2023/07/17 04:36:21;;;;;;;8.67;5.03;;;22.20;99.90;;;;;;6279377;22;20182;-79
2023/07/17 04:38:48;;;;;;;8.23;5.37;;;22.10;99.90;;;;;;6279537;22;20166;-80
2023/07/17 04:41:16;;;;;;;6.77;4.87;;;22.20;99.90;;;;;;6278008;22;20268;-79
2023/07/17 04:43:43;;;;;;;5.90;5.13;;;22.20;99.90;;;;;;6279450;22;20225;-79
2023/07/17 04:46:10;;;;;;;7.73;5.30;;;22.20;99.90;;;;;;6252640;22;20244;-80
2023/07/17 04:48:37;;;;;;;5.93;5.23;;;22.20;99.90;;;;;;6278547;22;20174;-81
2023/07/17 04:51:06;;;;;;;6.60;5.10;;;22.30;99.90;;;;;;6252303;22;20169;-80
2023/07/17 04:53:39;;;;;;;7.27;5.60;;;22.30;99.90;;;;;;6252386;22;20166;-83
2023/07/17 04:56:06;;;;;;;7.20;5.30;;;22.40;99.90;;;;;;6279706;22;20161;-80
2023/07/17 04:58:33;;;;;;;5.97;5.17;;;22.40;99.90;;;;;;6252791;22;20173;-81
2023/07/17 05:01:01;;;;;;;7.60;5.00;;;22.40;99.90;;;;;;6278270;22;20331;-78
2023/07/17 05:03:28;;;;;;;5.93;5.33;;;22.40;99.90;;;;;;6252866;22;20261;-78
2023/07/17 05:05:56;;;;;;;7.77;5.37;;;22.40;99.90;;;;;;6279313;22;20162;-79
2023/07/17 05:08:25;;;;;;;7.47;5.33;;;22.40;99.90;;;;;;6278028;22;20169;-79
2023/07/17 05:10:57;;;;;;;7.73;5.40;;;22.30;99.90;;;;;;6252148;22;20161;-80
2023/07/17 05:13:24;;;;;;;9.20;5.40;;;22.20;99.90;;;;;;6278769;22;20467;-78
2023/07/17 05:15:51;;;;;;;9.90;5.40;;;22.30;99.90;;;;;;6251661;22;20215;-78
2023/07/17 05:18:19;;;;;;;7.27;5.60;;;22.40;99.90;;;;;;6279194;22;20244;-79
2023/07/17 05:20:47;;;;;;;7.27;5.30;;;22.50;99.90;;;;;;6278944;22;20153;-79
2023/07/17 05:23:15;;;;;;;8.70;5.70;;;22.60;99.90;;;;;;6277840;22;20170;-78
2023/07/17 05:25:54;;;;;;;8.40;5.40;;;22.60;99.90;;;;;;6251770;22;20165;-79
2023/07/17 05:28:24;;;;;;;7.82;5.30;;;22.50;99.90;;;;;;6251832;22;20154;-81
2023/07/17 05:30:53;;;;;;;9.90;5.43;;;22.50;99.90;;;;;;6278939;22;20158;-81
2023/07/17 05:33:21;;;;;;;9.13;5.60;;;22.70;99.90;;;;;;6252391;22;20256;-80
2023/07/17 05:35:48;;;;;;;13.57;5.50;;;22.70;99.90;;;;;;6279028;22;20158;-79
2023/07/17 05:38:15;;;;;;;8.17;5.00;;;22.70;99.90;;;;;;6251885;22;20571;-79
2023/07/17 05:40:42;;;;;;;6.50;4.93;;;22.70;99.90;;;;;;6252397;22;20169;-79
2023/07/17 05:43:10;;;;;;;7.63;5.03;;;22.70;99.90;;;;;;6252152;22;20197;-81
2023/07/17 05:45:37;;;;;;;7.93;5.10;;;22.80;99.90;;;;;;6252055;22;20165;-80
2023/07/17 05:48:04;;;;;;;6.77;5.23;;;22.90;99.90;;;;;;6251855;22;20276;-79
2023/07/17 05:50:31;;;;;;;6.80;5.33;;;23.10;99.90;;;;;;6277647;22;20193;-81
2023/07/17 05:52:58;;;;;;;6.00;4.60;;;23.20;99.90;;;;;;6226801;22;20181;-80
2023/07/17 05:55:25;;;;;;;10.30;5.43;;;23.30;99.90;;;;;;6278956;22;20245;-81
2023/07/17 05:57:52;;;;;;;9.52;5.00;;;23.30;99.90;;;;;;6277949;22;20185;-81
2023/07/17 06:00:20;;;;;;;6.85;4.88;;;23.40;99.90;;;;;;6252001;22;20170;-80
2023/07/17 06:02:48;;;;;;;7.35;4.80;;;23.60;99.90;;;;;;6279313;22;20248;-81
2023/07/17 06:05:15;;;;;;;6.20;4.93;;;23.60;99.90;;;;;;6254071;22;20541;-80
2023/07/17 06:07:43;;;;;;;10.20;5.10;;;23.80;99.90;;;;;;6132551;23;20227;-81
2023/07/17 06:10:12;;;;;;;6.50;5.10;;;23.90;99.90;;;;;;6156987;23;20247;-79
2023/07/17 06:12:43;;;;;;;6.43;4.97;;;24.00;99.90;;;;;;6132339;23;20194;-85
2023/07/17 06:15:13;;;;;;;6.63;4.82;;;24.10;99.90;;;;;;6157972;23;20153;-87
2023/07/17 06:17:40;;;;;;;7.18;5.30;;;24.00;99.90;;;;;;6133231;23;20238;-82
2023/07/17 06:20:17;;;;;;;6.00;4.93;;;24.00;99.90;;;;;;6157206;23;20573;-80
2023/07/17 06:22:48;;;;;;;7.28;4.88;;;24.10;99.90;;;;;;6109013;23;20218;-80
2023/07/17 06:25:15;;;;;;;6.72;5.00;;;24.40;99.90;;;;;;6163561;22;20169;-80
2023/07/17 06:27:42;;;;;;;7.28;4.90;;;24.60;99.90;;;;;;6281315;22;20459;-82
2023/07/17 06:30:10;;;;;;;7.85;5.05;;;24.60;99.90;;;;;;6281080;22;20197;-82
2023/07/17 06:32:37;;;;;;;15.15;6.22;;;24.60;99.90;;;;;;6279479;22;20201;-80
2023/07/17 06:35:07;;;;;;;7.70;5.22;;;24.60;99.90;;;;;;6279870;22;20166;-80
2023/07/17 06:37:34;;;;;;;7.50;5.57;;;24.70;99.90;;;;;;6280771;22;20182;-79
2023/07/17 06:40:01;;;;;;;6.32;5.35;;;24.80;99.90;;;;;;6228619;22;20170;-81
2023/07/17 06:42:30;;;;;;;7.20;5.10;;;24.80;99.90;;;;;;6279313;22;20200;-81
2023/07/17 06:44:57;;;;;;;9.48;5.18;;;24.80;99.90;;;;;;6281041;22;20166;-80
2023/07/17 06:47:27;;;;;;;8.18;5.25;;;24.90;99.90;;;;;;6279074;22;20197;-80
2023/07/17 06:50:03;;;;;;;5.97;5.38;;;24.90;99.90;;;;;;6279511;22;20256;-80
2023/07/17 06:52:30;;;;;;;6.50;5.30;;;25.00;99.90;;;;;;6254298;22;20182;-80
2023/07/17 06:54:57;;;;;;;8.52;5.78;;;25.10;99.90;;;;;;6253737;22;20432;-82
2023/07/17 06:57:27;;;;;;;8.25;5.70;;;25.10;99.90;;;;;;6253119;22;20185;-84
2023/07/17 06:59:54;;;;;;;14.20;6.40;;;25.20;99.90;;;;;;6279706;22;20223;-82
2023/07/17 07:02:21;;;;;;;9.50;5.30;;;25.20;99.90;;;;;;6279606;22;20603;-84
2023/07/17 07:04:48;;;;;;;10.15;5.82;;;25.20;99.90;;;;;;6254356;22;20170;-82
2023/07/17 07:07:15;;;;;;;7.88;5.45;;;25.20;99.90;;;;;;6279925;22;20189;-82
2023/07/17 07:09:45;;;;;;;8.20;5.43;;;25.40;99.90;;;;;;6279448;22;20196;-82
2023/07/17 07:12:12;;;;;;;7.43;4.90;;;25.40;99.90;;;;;;6253856;22;20236;-83
2023/07/17 07:14:39;;;;;;;7.47;4.97;;;25.60;99.90;;;;;;6253711;22;20162;-80
2023/07/17 07:17:06;;;;;;;9.80;4.95;;;25.70;99.90;;;;;;6280343;22;20572;-80
2023/07/17 07:19:33;;;;;;;9.07;4.80;;;25.70;99.90;;;;;;6254024;22;20551;-81
2023/07/17 07:22:00;;;;;;;8.98;5.20;;;25.80;99.90;;;;;;6254189;22;20371;-82
2023/07/17 07:24:27;;;;;;;6.38;4.97;;;25.70;99.90;;;;;;6253843;22;20165;-82
2023/07/17 07:26:55;;;;;;;7.32;4.55;;;25.70;99.90;;;;;;6280396;22;20209;-81
2023/07/17 07:29:22;;;;;;;6.32;4.25;;;25.80;99.90;;;;;;6279187;22;20181;-83
2023/07/17 07:31:49;;;;;;;6.63;4.57;;;25.80;99.90;;;;;;6253881;22;20189;-82
2023/07/17 07:34:16;;;;;;;5.70;4.03;;;25.70;99.90;;;;;;6279354;22;20168;-82
2023/07/17 07:36:43;;;;;;;6.28;4.22;;;25.80;99.90;;;;;;6253515;22;20197;-83
2023/07/17 07:39:10;;;;;;;7.10;4.25;;;25.80;99.90;;;;;;6254886;22;20253;-83
2023/07/17 07:41:37;;;;;;;6.40;4.60;;;25.80;99.90;;;;;;6254120;22;20186;-82
2023/07/17 07:44:04;;;;;;;5.60;4.40;;;25.80;99.90;;;;;;6280839;22;20166;-80
2023/07/17 07:46:31;;;;;;;10.18;4.95;;;25.70;99.90;;;;;;6279411;22;20205;-80
2023/07/17 07:48:58;;;;;;;5.13;4.40;;;25.70;99.90;;;;;;6228767;22;20416;-81
2023/07/17 07:51:25;;;;;;;5.60;4.38;;;25.60;99.90;;;;;;6253477;22;20353;-81
2023/07/17 07:53:52;;;;;;;5.47;4.45;;;25.60;99.90;;;;;;6253289;22;20176;-81
2023/07/17 07:56:19;;;;;;;7.47;4.80;;;25.60;99.90;;;;;;6251933;22;20197;-80
2023/07/17 07:58:48;;;;;;;8.13;4.47;;;25.60;99.90;;;;;;6281082;22;20585;-80
2023/07/17 08:01:15;;;;;;;6.35;4.10;;;25.70;99.90;;;;;;6281040;22;20190;-80
2023/07/17 08:03:42;;;;;;;6.60;4.28;;;25.80;99.90;;;;;;6279422;22;20520;-80
2023/07/17 08:06:09;;;;;;;5.63;4.20;;;25.80;99.90;;;;;;6228940;22;20586;-82
2023/07/17 08:08:37;;;;;;;9.00;4.55;;;25.70;99.90;;;;;;6280690;22;20482;-84
2023/07/17 08:11:04;;;;;;;10.85;4.97;;;25.80;99.90;;;;;;6278910;22;20223;-83
2023/07/17 08:13:31;;;;;;;9.07;4.63;;;25.80;99.90;;;;;;6253273;22;20158;-80
2023/07/17 08:15:58;;;;;;;8.02;4.38;;;25.90;99.90;;;;;;6279671;22;20158;-84
2023/07/17 08:18:25;;;;;;;7.50;4.60;;;25.90;99.90;;;;;;6277607;22;20161;-83
2023/07/17 08:20:52;;;;;;;9.02;4.50;;;25.80;99.90;;;;;;6226551;22;20219;-84
2023/07/17 08:23:26;;;;;;;7.07;4.35;;;25.80;99.90;;;;;;6252388;22;20469;-85
2023/07/17 08:25:53;;;;;;;9.75;4.40;;;25.90;99.90;;;;;;6252742;22;20208;-84
2023/07/17 08:28:21;;;;;;;8.55;4.47;;;26.10;99.90;;;;;;6252208;22;20245;-86
2023/07/17 08:30:52;;;;;;;7.85;4.20;;;26.10;99.90;;;;;;6252167;22;20185;-83
2023/07/17 08:33:21;;;;;;;10.18;4.50;;;26.20;99.90;;;;;;6252001;22;20241;-84
2023/07/17 08:35:48;;;;;;;6.55;4.22;;;26.30;99.90;;;;;;6278665;22;20396;-83
2023/07/17 08:38:15;;;;;;;7.22;4.10;;;26.50;99.90;;;;;;6251268;22;20256;-83
2023/07/17 08:40:50;;;;;;;9.25;4.88;;;26.70;99.90;;;;;;6277490;22;20222;-83
2023/07/17 08:43:17;;;;;;;6.35;4.57;;;26.80;99.90;;;;;;6226999;22;20483;-81
2023/07/17 08:45:46;;;;;;;10.25;4.57;;;26.90;99.90;;;;;;6226379;22;20215;-82
2023/07/17 08:48:15;;;;;;;7.88;4.45;;;27.10;99.90;;;;;;6278629;22;20165;-81
2023/07/17 08:50:42;;;;;;;6.53;4.60;;;27.40;99.90;;;;;;6278967;22;20181;-80
2023/07/17 08:53:10;;;;;;;7.30;4.70;;;27.50;99.90;;;;;;6251840;22;20196;-78
2023/07/17 08:55:37;;;;;;;7.53;4.47;;;27.60;99.90;;;;;;6252464;22;20169;-82
2023/07/17 08:58:05;;;;;;;7.13;4.82;;;27.90;99.90;;;;;;6252833;22;20212;-80
2023/07/17 09:00:32;;;;;;;7.15;4.18;;;28.30;99.90;;;;;;6277459;22;20172;-81
2023/07/17 09:02:59;;;;;;;5.07;3.92;;;28.00;99.90;;;;;;6251768;22;20189;-81
2023/07/17 09:05:27;;;;;;;7.10;4.18;;;27.90;99.90;;;;;;6278766;22;20161;-81
2023/07/17 09:07:54;;;;;;;5.97;4.30;;;28.30;99.90;;;;;;6252071;22;20193;-81
2023/07/17 09:10:23;;;;;;;5.57;4.18;;;28.90;99.90;;;;;;6277915;22;20197;-82
2023/07/17 09:12:58;;;;;;;5.18;4.20;;;29.60;99.90;;;;;;6252067;22;20202;-83
2023/07/17 09:15:29;;;;;;;6.45;4.10;;;29.90;99.90;;;;;;6252027;22;20589;-82
2023/07/17 09:17:56;;;;;;;5.95;4.25;;;30.50;99.90;;;;;;6230477;22;1124098;-83
2023/07/17 09:20:24;;;;;;;5.68;4.00;;;30.10;99.90;;;;;;6253570;22;20195;-83
2023/07/17 09:22:58;;;;;;;5.40;3.92;;;30.10;99.90;;;;;;6279363;22;20189;-82
2023/07/17 09:25:27;;;;;;;4.63;3.95;;;30.50;99.90;;;;;;6279309;22;20162;-81
2023/07/17 09:27:55;;;;;;;5.75;4.00;;;30.40;99.90;;;;;;6253388;22;20669;-79
2023/07/17 09:30:24;;;;;;;4.75;3.40;;;30.70;99.90;;;;;;6253044;22;20182;-79
2023/07/17 09:32:52;;;;;;;4.05;3.30;;;30.60;99.90;;;;;;6253129;22;20186;-79
2023/07/17 09:35:20;;;;;;;4.93;3.58;;;30.60;99.90;;;;;;6253261;22;20253;-81
2023/07/17 09:37:47;;;;;;;4.43;3.58;;;30.60;99.90;;;;;;6253589;22;20239;-80
2023/07/17 09:40:18;;;;;;;5.03;3.22;;;30.80;99.90;;;;;;6255308;22;20196;-82
2023/07/17 09:42:53;;;;;;;5.90;3.78;;;31.10;99.90;;;;;;6255027;22;20193;-82
2023/07/17 09:45:21;;;;;;;4.63;3.38;;;31.00;99.90;;;;;;6254796;22;20425;-81
2023/07/17 09:47:52;;;;;;;5.25;3.65;;;31.20;99.90;;;;;;6254224;22;20450;-82
2023/07/17 09:50:22;;;;;;;4.18;3.55;;;31.00;99.90;;;;;;6282256;22;20174;-84
2023/07/17 09:52:50;;;;;;;5.70;3.50;;;31.20;99.90;;;;;;6282062;22;20182;-82
2023/07/17 09:55:19;;;;;;;4.68;3.40;;;30.90;99.90;;;;;;6281267;22;20458;-83
2023/07/17 09:57:50;;;;;;;4.63;3.55;;;31.40;99.90;;;;;;6283226;22;20182;-84
2023/07/17 10:00:19;;;;;;;4.20;3.20;;;31.90;99.90;;;;;;6283287;22;20162;-79
2023/07/17 10:02:53;;;;;;;5.28;3.35;;;32.60;99.90;;;;;;6281741;22;20192;-82
2023/07/17 10:05:21;;;;;;;4.78;3.35;;;32.80;99.90;;;;;;6255186;22;20161;-83
2023/07/17 10:07:50;;;;;;;5.53;3.58;;;33.10;99.90;;;;;;6281849;22;20447;-81
2023/07/17 10:10:18;;;;;;;6.53;3.60;;;33.10;99.90;;;;;;6254743;22;20582;-82
2023/07/17 10:12:45;;;;;;;3.85;3.47;;;32.90;99.90;;;;;;6254744;22;20185;-82
2023/07/17 10:15:14;;;;;;;3.40;3.10;;;33.20;99.50;;;;;;6254437;22;20169;-82
2023/07/17 10:17:41;;;;;;;6.20;3.25;;;33.10;98.30;;;;;;6254319;22;20244;-80
2023/07/17 10:20:11;;;;;;;5.28;3.33;;;32.40;99.20;;;;;;6281020;22;20189;-81
2023/07/17 10:22:45;;;;;;;4.40;3.63;;;32.70;99.50;;;;;;6253913;22;20200;-80
2023/07/17 10:25:18;;;;;;;4.28;3.28;;;32.90;98.80;;;;;;6253904;22;20165;-80
2023/07/17 10:27:57;;;;;;;3.97;3.50;;;33.30;98.20;;;;;;6280901;22;20185;-82
2023/07/17 10:30:26;;;;;;;4.43;3.50;;;33.80;97.20;;;;;;6253820;22;20201;-79
2023/07/17 10:33:08;;;;;;;4.90;3.35;;;33.90;96.30;;;;;;6254196;22;20239;-82
2023/07/17 10:35:56;;;;;;;4.38;3.67;;;33.30;96.10;;;;;;6254043;22;20212;-80
2023/07/17 10:38:25;;;;;;;3.95;3.33;;;32.60;96.80;;;;;;6279641;22;20172;-82
2023/07/17 10:41:02;;;;;;;4.50;3.88;;;32.00;97.90;;;;;;6252395;22;20166;-83
2023/07/17 10:43:29;;;;;;;4.75;3.35;;;31.90;98.20;;;;;;6254699;22;20165;-82
2023/07/17 10:45:59;;;;;;;5.28;3.40;;;31.90;98.30;;;;;;6281008;22;20176;-84
2023/07/17 10:48:33;;;;;;;4.32;3.55;;;32.20;97.70;;;;;;6279908;22;20227;-83
2023/07/17 10:51:00;;;;;;;3.78;3.38;;;31.80;97.80;;;;;;6280661;22;20627;-83
2023/07/17 10:53:27;;;;;;;6.05;3.50;;;31.80;98.90;;;;;;6279933;22;20593;-80
2023/07/17 10:55:54;;;;;;;6.72;3.67;;;31.80;98.50;;;;;;6253250;22;20169;-81
2023/07/17 10:58:21;;;;;;;5.90;3.55;;;31.90;98.50;;;;;;6280360;22;20162;-82
2023/07/17 11:00:48;;;;;;;6.95;3.53;;;32.40;97.60;;;;;;6229049;22;20185;-81
2023/07/17 11:03:16;;;;;;;5.93;3.22;;;32.50;97.60;;;;;;6253861;22;20176;-82
2023/07/17 11:05:45;;;;;;;5.38;2.90;;;32.70;96.60;;;;;;6253664;22;20525;-81
2023/07/17 11:08:12;;;;;;;4.35;3.30;;;33.40;95.80;;;;;;6253820;22;20192;-80
2023/07/17 11:10:42;;;;;;;4.20;3.28;;;33.50;95.30;;;;;;6253757;22;20564;-79
2023/07/17 11:13:09;;;;;;;3.47;3.17;;;34.00;94.90;;;;;;6253843;22;20326;-83
2023/07/17 11:15:37;;;;;;;3.47;3.17;;;34.00;93.60;;;;;;6254173;22;20536;-81
2023/07/17 11:18:07;;;;;;;5.32;3.25;;;34.00;93.40;;;;;;6253335;22;20209;-83
2023/07/17 11:20:35;;;;;;;3.70;3.20;;;33.90;93.00;;;;;;6253837;22;20252;-84
2023/07/17 11:23:03;;;;;;;4.20;3.38;;;33.80;93.40;;;;;;6253949;22;20200;-87
2023/07/17 11:25:35;;;;;;;3.78;3.10;;;33.70;93.10;;;;;;6281060;22;20162;-84
2023/07/17 11:28:02;;;;;;;4.45;3.30;;;33.80;92.80;;;;;;6280572;22;20276;-85
2023/07/17 11:30:32;;;;;;;4.30;3.10;;;33.90;92.40;;;;;;6280638;22;20235;-87
2023/07/17 11:33:00;;;;;;;3.95;3.10;;;34.10;91.60;;;;;;6253674;22;20567;-82
2023/07/17 11:35:49;;;;;;;4.35;2.90;;;33.50;92.10;;;;;;6253781;22;20540;-83
2023/07/17 11:38:19;;;;;;;3.40;2.92;;;33.30;92.60;;;;;;6280724;22;20158;-80
2023/07/17 11:40:54;;;;;;;4.35;3.15;;;33.00;92.10;;;;;;6280285;22;20219;-81
2023/07/17 11:43:33;;;;;;;5.43;2.90;;;32.40;93.20;;;;;;6253519;22;20168;-82
2023/07/17 11:46:02;;;;;;;5.38;3.08;;;32.50;93.10;;;;;;6253548;22;20176;-80
2023/07/17 11:48:32;;;;;;;4.53;2.90;;;32.80;93.60;;;;;;6253110;22;20532;-80
2023/07/17 11:51:02;;;;;;;3.85;2.78;;;33.70;92.30;;;;;;6280321;22;20182;-83
2023/07/17 11:53:30;;;;;;;4.43;2.78;;;34.50;91.10;;;;;;6229036;22;20162;-80
2023/07/17 11:56:00;;;;;;;4.93;2.70;;;34.90;90.00;;;;;;6278559;22;20173;-82
2023/07/17 11:58:30;;;;;;;7.55;2.97;;;35.10;89.20;;;;;;6280113;22;20192;-83
2023/07/17 12:00:57;;;;;;;6.10;2.85;;;35.50;85.90;;;;;;6253763;22;20165;-84
2023/07/17 12:03:25;;;;;;;3.22;2.92;;;35.00;86.70;;;;;;6228748;22;20574;-84
2023/07/17 12:05:52;;;;;;;4.35;3.00;;;34.70;86.90;;;;;;6254600;22;20176;-83
2023/07/17 12:08:19;;;;;;;5.32;2.60;;;34.00;88.30;;;;;;6254241;22;20180;-83
2023/07/17 12:10:46;;;;;;;5.85;2.75;;;33.80;89.10;;;;;;6281829;22;20207;-84
2023/07/17 12:13:14;;;;;;;3.45;2.70;;;33.40;88.00;;;;;;6281175;22;20411;-84
2023/07/17 12:15:41;;;;;;;3.40;3.05;;;33.00;89.00;;;;;;6253046;22;20189;-83
2023/07/17 12:18:08;;;;;;;4.25;2.58;;;32.70;89.10;;;;;;6254161;22;20291;-84
2023/07/17 12:20:36;;;;;;;4.55;3.72;;;32.30;90.10;;;;;;6280867;22;20572;-83
2023/07/17 12:23:05;;;;;;;3.97;3.40;;;31.40;91.10;;;;;;6254173;22;20196;-84
2023/07/17 12:25:32;;;;;;;4.43;3.10;;;31.30;91.50;;;;;;6254181;22;20212;-82
2023/07/17 12:28:00;;;;;;;4.95;3.25;;;31.30;92.10;;;;;;6254100;22;20249;-83
2023/07/17 12:30:29;;;;;;;4.00;3.20;;;31.60;92.00;;;;;;6254065;22;20540;-83
2023/07/17 12:32:58;;;;;;;4.55;3.33;;;31.40;91.60;;;;;;6253987;22;20194;-80
2023/07/17 12:35:27;;;;;;;6.47;3.70;;;31.50;92.10;;;;;;6253151;22;20212;-83
2023/07/17 12:37:55;;;;;;;3.55;2.97;;;31.50;92.70;;;;;;6279817;22;20295;-81
2023/07/17 12:40:23;;;;;;;4.65;3.22;;;31.50;93.00;;;;;;6252971;22;20165;-81
2023/07/17 12:42:50;;;;;;;4.03;3.03;;;31.60;93.40;;;;;;6252825;22;20258;-82
2023/07/17 12:45:17;;;;;;;4.82;3.50;;;31.60;93.80;;;;;;6252521;22;20168;-82
2023/07/17 12:47:44;;;;;;;5.65;3.53;;;31.10;94.20;;;;;;6252487;22;20293;-82
2023/07/17 12:50:12;;;;;;;5.10;3.75;;;30.90;95.20;;;;;;6279845;22;20158;-83